createdAt,value
2023-03-21T00:00:58.235Z,0.80
2023-03-21T00:03:26.366Z,0.70
2023-03-21T00:05:54.200Z,1.13
2023-03-21T00:08:23.315Z,1.17
2023-03-21T00:11:04.289Z,5.70
2023-03-21T00:13:38.427Z,1.40
2023-03-21T00:16:17.722Z,1.90
2023-03-21T00:18:52.428Z,1.50
2023-03-21T00:21:41.061Z,2.13
2023-03-21T00:24:08.683Z,4.37
2023-03-21T00:26:35.995Z,4.67
2023-03-21T00:29:02.907Z,3.00
2023-03-21T00:31:29.830Z,2.23
2023-03-21T00:33:57.088Z,3.80
2023-03-21T00:36:26.049Z,2.13
2023-03-21T00:38:53.224Z,2.50
2023-03-21T00:41:35.237Z,4.07
2023-03-21T00:44:07.177Z,2.10
2023-03-21T00:46:45.136Z,2.13
2023-03-21T00:49:14.047Z,2.93
2023-03-21T00:51:40.990Z,2.90
2023-03-21T00:54:08.008Z,3.17
2023-03-21T00:56:34.950Z,3.50
2023-03-21T00:59:01.936Z,6.47
2023-03-21T01:01:32.097Z,3.07
2023-03-21T01:04:10.860Z,2.43
2023-03-21T01:06:39.615Z,3.40
2023-03-21T01:09:11.639Z,2.30
2023-03-21T01:11:38.664Z,5.07
2023-03-21T01:14:20.770Z,8.77
2023-03-21T01:16:49.508Z,3.30
2023-03-21T01:19:26.341Z,3.90
2023-03-21T01:21:57.196Z,4.80
2023-03-21T01:24:24.129Z,6.87
2023-03-21T01:26:51.092Z,4.30
2023-03-21T01:29:18.168Z,4.37
2023-03-21T01:31:45.279Z,3.10
2023-03-21T01:34:12.278Z,4.00
2023-03-21T01:36:39.312Z,4.07
2023-03-21T01:39:06.819Z,3.67
2023-03-21T01:41:43.300Z,12.37
2023-03-21T01:44:16.952Z,6.47
2023-03-21T01:47:00.469Z,9.87
2023-03-21T01:49:38.748Z,9.53
2023-03-21T01:52:15.314Z,21.03
2023-03-21T01:54:46.940Z,6.37
2023-03-21T01:57:43.559Z,4.93
2023-03-21T02:00:15.742Z,4.83
2023-03-21T02:02:58.278Z,7.30
2023-03-21T02:05:48.433Z,3.40
2023-03-21T02:08:15.656Z,11.30
2023-03-21T02:10:45.758Z,29.30
2023-03-21T02:13:12.915Z,10.83
2023-03-21T02:15:47.204Z,6.37
2023-03-21T02:18:58.410Z,6.67
2023-03-21T02:21:57.633Z,11.97
2023-03-21T02:25:13.356Z,7.80
2023-03-21T02:28:03.528Z,12.87
2023-03-21T02:31:03.006Z,11.87
2023-03-21T02:33:48.053Z,8.37
2023-03-21T02:36:26.407Z,30.50
2023-03-21T02:39:01.898Z,13.07
2023-03-21T02:41:49.019Z,13.20
2023-03-21T02:45:06.239Z,8.20
2023-03-21T02:47:47.636Z,2.87
2023-03-21T02:50:38.583Z,6.60
2023-03-21T02:53:08.984Z,16.60
2023-03-21T02:55:37.379Z,28.33
2023-03-21T02:58:12.739Z,12.60
2023-03-21T03:00:42.943Z,12.60
2023-03-21T03:03:12.708Z,13.33
2023-03-21T03:06:12.795Z,30.63
2023-03-21T03:08:47.556Z,21.80
2023-03-21T03:11:36.621Z,13.80
2023-03-21T03:14:43.848Z,21.60
2023-03-21T03:17:22.347Z,14.10
2023-03-21T03:20:16.609Z,6.17
2023-03-21T03:23:26.019Z,21.63
2023-03-21T03:25:57.170Z,11.70
2023-03-21T03:28:30.478Z,18.20
2023-03-21T03:31:08.501Z,26.87
2023-03-21T03:33:41.141Z,31.37
2023-03-21T03:36:18.781Z,12.20
2023-03-21T03:38:57.437Z,11.90
2023-03-21T03:41:27.727Z,13.57
2023-03-21T03:43:58.577Z,8.40
2023-03-21T03:46:33.482Z,25.90
2023-03-21T03:49:18.424Z,12.93
2023-03-21T03:52:23.599Z,9.33
2023-03-21T03:54:52.242Z,15.60
2023-03-21T03:57:20.305Z,11.17
2023-03-21T03:59:47.591Z,11.60
2023-03-21T04:02:15.114Z,6.90
2023-03-21T04:04:42.158Z,10.30
2023-03-21T04:07:09.193Z,20.57
2023-03-21T04:09:44.013Z,7.40
2023-03-21T04:12:12.939Z,19.13
2023-03-21T04:14:45.816Z,32.07
2023-03-21T04:17:15.084Z,10.23
2023-03-21T04:19:42.529Z,20.87
2023-03-21T04:22:09.508Z,26.00
2023-03-21T04:24:37.590Z,115.60
2023-03-21T04:27:07.988Z,17.80
2023-03-21T04:29:34.936Z,15.77
2023-03-21T04:32:01.893Z,36.20
2023-03-21T04:34:29.039Z,147.50
2023-03-21T04:36:56.117Z,152.97
2023-03-21T04:39:24.769Z,12.63
2023-03-21T04:41:51.895Z,14.43
2023-03-21T04:44:18.930Z,20.53
2023-03-21T04:46:45.979Z,19.53
2023-03-21T04:49:13.531Z,9.43
2023-03-21T04:51:41.696Z,81.93
2023-03-21T04:56:36.175Z,26.83
2023-03-21T04:59:08.391Z,12.80
2023-03-21T05:01:35.470Z,15.20
2023-03-21T05:04:03.539Z,178.50
2023-03-21T05:06:30.904Z,20.73
2023-03-21T05:09:05.600Z,39.83
2023-03-21T05:11:35.953Z,103.27
2023-03-21T05:14:03.282Z,113.13
2023-03-21T05:16:30.979Z,33.03
2023-03-21T05:19:03.815Z,43.00
2023-03-21T05:21:41.456Z,51.27
2023-03-21T05:24:12.287Z,51.07
2023-03-21T05:26:40.274Z,95.10
2023-03-21T05:29:08.260Z,61.77
2023-03-21T05:31:36.208Z,19.03
2023-03-21T05:34:03.810Z,130.40
2023-03-21T05:36:34.051Z,121.67
2023-03-21T05:39:01.895Z,57.33
2023-03-21T05:41:29.084Z,31.17
2023-03-21T05:43:55.980Z,45.17
2023-03-21T05:46:23.025Z,261.43
2023-03-21T05:48:49.976Z,86.00
2023-03-21T05:51:17.730Z,29.03
2023-03-21T05:53:44.813Z,75.87
2023-03-21T05:56:11.940Z,176.07
2023-03-21T05:58:38.934Z,169.40
2023-03-21T06:01:06.672Z,55.77
2023-03-21T06:03:33.605Z,39.60
2023-03-21T06:06:01.253Z,42.97
2023-03-21T06:08:28.231Z,51.93
2023-03-21T06:10:55.685Z,99.50
2023-03-21T06:13:22.615Z,20.70
2023-03-21T06:15:49.614Z,53.53
2023-03-21T06:18:16.578Z,84.17
2023-03-21T06:20:43.549Z,82.60
2023-03-21T06:23:10.623Z,10.13
2023-03-21T06:25:37.830Z,39.23
2023-03-21T06:28:04.945Z,14.77
2023-03-21T06:30:31.827Z,57.03
2023-03-21T06:32:58.737Z,65.50
2023-03-21T06:35:25.769Z,39.33
2023-03-21T06:37:52.665Z,102.93
2023-03-21T06:40:19.689Z,106.50
2023-03-21T06:42:46.577Z,48.10
2023-03-21T06:45:13.506Z,17.90
2023-03-21T06:47:40.670Z,123.37
2023-03-21T06:50:08.095Z,54.00
2023-03-21T06:52:35.081Z,116.27
2023-03-21T06:55:02.030Z,119.20
2023-03-21T06:57:28.938Z,99.70
2023-03-21T06:59:56.057Z,173.10
2023-03-21T07:02:23.011Z,201.27
2023-03-21T07:04:49.932Z,69.33
2023-03-21T07:07:16.825Z,60.90
2023-03-21T07:09:43.858Z,121.73
2023-03-21T07:12:11.123Z,116.40
2023-03-21T07:14:38.091Z,58.57
2023-03-21T07:17:05.242Z,112.47
2023-03-21T07:19:32.172Z,138.97
2023-03-21T07:22:00.201Z,154.57
2023-03-21T07:24:27.552Z,150.73
2023-03-21T07:26:54.484Z,11.30
2023-03-21T07:29:23.217Z,43.40
2023-03-21T07:31:50.429Z,75.33
2023-03-21T07:34:18.893Z,59.43
2023-03-21T07:36:46.193Z,59.30
2023-03-21T07:39:13.175Z,117.03
2023-03-21T07:41:40.377Z,169.87
2023-03-21T07:46:39.055Z,110.80
2023-03-21T07:49:06.330Z,97.73
2023-03-21T07:51:35.402Z,159.53
2023-03-21T07:54:02.771Z,117.70
2023-03-21T07:56:29.788Z,73.93
2023-03-21T07:58:56.642Z,21.53
2023-03-21T08:01:23.737Z,76.03
2023-03-21T08:03:51.462Z,52.10
2023-03-21T08:06:18.461Z,101.17
2023-03-21T08:08:45.534Z,153.47
2023-03-21T08:11:13.068Z,94.43
2023-03-21T08:13:40.312Z,95.10
2023-03-21T08:16:08.859Z,60.33
2023-03-21T08:18:35.982Z,10.37
2023-03-21T08:21:03.022Z,22.40
2023-03-21T08:23:30.022Z,10.07
2023-03-21T08:25:57.602Z,7.43
2023-03-21T08:28:24.991Z,8.00
2023-03-21T08:30:52.012Z,7.93
2023-03-21T08:33:19.160Z,13.40
2023-03-21T08:35:46.783Z,7.97
2023-03-21T08:38:14.251Z,6.57
2023-03-21T08:40:41.538Z,6.33
2023-03-21T08:43:08.685Z,6.13
2023-03-21T08:45:35.967Z,6.37
2023-03-21T08:48:03.105Z,7.10
2023-03-21T08:50:31.859Z,5.93
2023-03-21T08:52:58.837Z,5.40
2023-03-21T08:55:25.938Z,4.23
2023-03-21T08:57:52.916Z,4.10
2023-03-21T09:00:20.874Z,4.33
2023-03-21T09:02:51.485Z,4.20
2023-03-21T09:05:19.566Z,6.17
2023-03-21T09:07:46.884Z,4.10
2023-03-21T09:10:22.203Z,4.70
2023-03-21T09:12:54.924Z,3.30
2023-03-21T09:15:24.870Z,3.10
2023-03-21T09:17:54.169Z,3.57
2023-03-21T09:20:30.619Z,3.23
2023-03-21T09:22:59.173Z,3.03
2023-03-21T09:25:31.413Z,2.70
2023-03-21T09:28:00.323Z,2.47
2023-03-21T09:30:27.493Z,3.03
2023-03-21T09:32:55.897Z,2.20
2023-03-21T09:35:24.840Z,2.63
2023-03-21T09:37:51.883Z,2.33
2023-03-21T09:40:25.533Z,2.50
2023-03-21T09:43:21.951Z,3.57
2023-03-21T09:46:07.712Z,2.57
2023-03-21T09:49:01.593Z,2.57
2023-03-21T09:51:40.527Z,2.20
2023-03-21T09:54:17.832Z,2.60
2023-03-21T09:56:45.969Z,2.10
2023-03-21T09:59:38.242Z,2.03
2023-03-21T10:02:18.074Z,2.00
2023-03-21T10:04:46.491Z,2.67
2023-03-21T10:07:18.142Z,2.03
2023-03-21T10:09:47.261Z,1.30
2023-03-21T10:12:22.369Z,2.77
2023-03-21T10:14:58.105Z,1.47
2023-03-21T10:17:42.666Z,1.30
2023-03-21T10:20:27.766Z,1.20
2023-03-21T10:22:56.799Z,3.17
2023-03-21T10:25:49.535Z,2.13
2023-03-21T10:28:24.593Z,1.10
2023-03-21T10:30:54.545Z,0.90
2023-03-21T10:33:36.056Z,2.07
2023-03-21T10:36:08.211Z,2.83
2023-03-21T10:38:35.838Z,0.80
2023-03-21T10:41:02.748Z,0.70
2023-03-21T10:43:37.375Z,0.60
2023-03-21T10:46:19.049Z,0.30
2023-03-21T10:48:52.497Z,0.30
2023-03-21T10:51:28.178Z,0.67
2023-03-21T10:54:01.490Z,0.60
2023-03-21T10:56:31.166Z,0.60
2023-03-21T10:59:00.393Z,1.07
2023-03-21T11:01:51.627Z,1.07
2023-03-21T11:04:22.300Z,0.97
2023-03-21T11:07:02.992Z,1.30
2023-03-21T11:09:47.065Z,0.70
2023-03-21T11:12:16.825Z,0.70
2023-03-21T11:14:46.462Z,0.17
2023-03-21T11:17:24.989Z,0.30
2023-03-21T11:19:59.553Z,0.50
2023-03-21T11:22:31.375Z,0.63
2023-03-21T11:25:01.239Z,0.20
2023-03-21T11:27:32.016Z,0.87
2023-03-21T11:30:02.109Z,0.47
2023-03-21T11:32:37.329Z,0.30
2023-03-21T11:35:12.837Z,0.30
2023-03-21T11:37:49.420Z,0.37
2023-03-21T11:40:19.810Z,0.70
2023-03-21T11:42:49.842Z,0.20
2023-03-21T11:45:18.569Z,0.33
2023-03-21T11:47:49.416Z,0.30
2023-03-21T11:50:21.918Z,1.90
2023-03-21T11:53:10.782Z,0.30
2023-03-21T11:56:02.170Z,0.20
2023-03-21T11:58:44.718Z,3.00
2023-03-21T12:01:19.576Z,0.20
2023-03-21T12:04:06.436Z,0.53
2023-03-21T12:07:00.685Z,0.30
2023-03-21T12:09:43.927Z,0.40
2023-03-21T12:12:38.417Z,0.73
2023-03-21T12:15:11.520Z,1.43
2023-03-21T12:17:56.966Z,0.57
2023-03-21T12:20:30.743Z,0.30
2023-03-21T12:23:03.673Z,0.43
2023-03-21T12:25:59.353Z,0.30
2023-03-21T12:28:41.224Z,0.20
2023-03-21T12:31:26.076Z,0.37
2023-03-21T12:34:04.626Z,0.40
2023-03-21T12:37:05.852Z,0.30
2023-03-21T12:39:39.638Z,0.50
2023-03-21T12:42:14.917Z,1.23
2023-03-21T12:44:51.665Z,0.07
2023-03-21T12:47:24.678Z,1.30
2023-03-21T12:50:01.647Z,0.70
2023-03-21T12:52:43.332Z,0.50
2023-03-21T12:55:29.484Z,1.70
2023-03-21T12:58:14.513Z,1.17
2023-03-21T13:00:49.264Z,0.47
2023-03-21T13:03:40.303Z,0.40
2023-03-21T13:06:10.740Z,2.30
2023-03-21T13:08:42.860Z,0.20
2023-03-21T13:11:15.865Z,0.67
2023-03-21T13:13:49.831Z,0.37
2023-03-21T13:16:27.015Z,0.50
2023-03-21T13:19:06.481Z,0.97
2023-03-21T13:21:52.358Z,0.40
2023-03-21T13:24:39.114Z,0.80
2023-03-21T13:27:28.469Z,2.67
2023-03-21T13:30:18.396Z,1.67
2023-03-21T13:32:49.147Z,0.63
2023-03-21T13:35:29.116Z,0.40
2023-03-21T13:38:05.195Z,1.30
2023-03-21T13:40:43.736Z,0.80
2023-03-21T13:43:29.285Z,0.30
2023-03-21T13:45:56.204Z,0.17
2023-03-21T13:48:31.661Z,0.53
2023-03-21T13:51:04.135Z,1.27
2023-03-21T13:53:37.155Z,0.63
2023-03-21T13:56:08.995Z,2.00
2023-03-21T13:58:40.647Z,0.40
2023-03-21T14:01:43.015Z,0.50
2023-03-21T14:04:23.970Z,2.50
2023-03-21T14:07:05.033Z,0.83
2023-03-21T14:09:45.752Z,0.50
2023-03-21T14:12:38.087Z,1.70
2023-03-21T14:15:16.800Z,0.40
2023-03-21T14:17:58.716Z,0.40
2023-03-21T14:20:28.815Z,0.20
2023-03-21T14:22:56.218Z,0.10
2023-03-21T14:25:29.221Z,0.23
2023-03-21T14:28:01.596Z,1.03
2023-03-21T14:30:33.450Z,0.40
2023-03-21T14:33:15.739Z,0.60
2023-03-21T14:35:43.009Z,0.20
2023-03-21T14:38:23.473Z,0.33
2023-03-21T14:40:54.027Z,0.73
2023-03-21T14:43:23.010Z,3.87
2023-03-21T14:45:55.893Z,0.93
2023-03-21T14:48:31.314Z,0.73
2023-03-21T14:51:04.076Z,0.83
2023-03-21T14:53:36.042Z,0.50
2023-03-21T14:56:22.026Z,0.27
2023-03-21T14:58:49.985Z,0.50
2023-03-21T15:01:32.710Z,0.20
2023-03-21T15:04:01.668Z,0.40
2023-03-21T15:06:28.638Z,2.27
2023-03-21T15:09:01.265Z,0.20
2023-03-21T15:11:39.267Z,1.23
2023-03-21T15:14:08.816Z,0.67
2023-03-21T15:16:36.933Z,0.63
2023-03-21T15:19:05.286Z,0.40
2023-03-21T15:21:45.378Z,0.80
2023-03-21T15:24:20.494Z,1.93
2023-03-21T15:26:49.597Z,2.87
2023-03-21T15:29:17.996Z,2.73
2023-03-21T15:31:48.080Z,1.70
2023-03-21T15:34:24.681Z,2.23
2023-03-21T15:37:05.552Z,9.13
2023-03-21T15:39:36.020Z,6.93
2023-03-21T15:42:22.659Z,3.13
2023-03-21T15:44:53.209Z,2.07
2023-03-21T15:47:48.158Z,1.87
2023-03-21T15:50:40.285Z,0.70
2023-03-21T15:53:18.803Z,0.60
2023-03-21T15:55:48.345Z,1.00
2023-03-21T15:58:19.646Z,0.63
2023-03-21T16:00:55.255Z,1.10
2023-03-21T16:03:27.417Z,0.50
2023-03-21T16:06:11.447Z,0.73
2023-03-21T16:08:51.196Z,2.50
2023-03-21T16:11:28.289Z,1.80
2023-03-21T16:13:56.859Z,1.43
2023-03-21T16:16:27.224Z,1.37
2023-03-21T16:18:55.639Z,1.87
2023-03-21T16:21:26.644Z,1.27
2023-03-21T16:23:54.388Z,7.00
2023-03-21T16:26:27.680Z,10.87
2023-03-21T16:28:55.419Z,5.43
2023-03-21T16:31:28.271Z,2.20
2023-03-21T16:33:55.873Z,2.13
2023-03-21T16:36:32.815Z,1.47
2023-03-21T16:39:00.259Z,2.83
2023-03-21T16:41:28.178Z,0.73
2023-03-21T16:43:55.465Z,1.13
2023-03-21T16:46:27.438Z,0.97
2023-03-21T16:48:57.008Z,0.73
2023-03-21T16:51:30.565Z,0.90
2023-03-21T16:53:58.154Z,1.33
2023-03-21T16:56:42.376Z,1.23
2023-03-21T16:59:12.105Z,1.40
2023-03-21T17:01:41.290Z,1.17
2023-03-21T17:04:09.225Z,1.67
2023-03-21T17:06:44.590Z,1.00
2023-03-21T17:09:13.846Z,1.27
2023-03-21T17:11:41.676Z,2.50
2023-03-21T17:14:10.353Z,3.47
2023-03-21T17:16:37.423Z,1.27
2023-03-21T17:19:12.117Z,2.47
2023-03-21T17:21:40.359Z,4.37
2023-03-21T17:24:07.507Z,3.93
2023-03-21T17:26:34.417Z,3.27
2023-03-21T17:29:01.527Z,0.73
2023-03-21T17:31:36.269Z,2.90
2023-03-21T17:34:04.550Z,0.93
2023-03-21T17:36:33.310Z,3.27
2023-03-21T17:39:00.944Z,2.83
2023-03-21T17:41:28.130Z,10.40
2023-03-21T17:43:56.034Z,3.27
2023-03-21T17:46:25.787Z,4.83
2023-03-21T17:48:53.335Z,2.60
2023-03-21T17:51:20.381Z,3.20
2023-03-21T17:53:50.693Z,2.57
2023-03-21T17:56:27.853Z,1.40
2023-03-21T17:58:54.961Z,1.03
2023-03-21T18:01:23.313Z,1.20
2023-03-21T18:03:51.370Z,1.10
2023-03-21T18:06:21.641Z,1.07
2023-03-21T18:08:49.289Z,1.47
2023-03-21T18:11:17.740Z,0.70
2023-03-21T18:13:45.110Z,2.60
2023-03-21T18:16:23.475Z,1.33
2023-03-21T18:18:53.763Z,2.83
2023-03-21T18:21:22.748Z,1.03
2023-03-21T18:23:50.204Z,2.47
2023-03-21T18:26:19.773Z,0.83
2023-03-21T18:29:28.143Z,0.90
2023-03-21T18:31:37.310Z,2.37
2023-03-21T18:34:04.348Z,1.03
2023-03-21T18:36:31.600Z,1.33
2023-03-21T18:38:58.879Z,0.60
2023-03-21T18:41:26.062Z,0.73
2023-03-21T18:44:04.679Z,1.53
2023-03-21T18:46:47.220Z,0.40
2023-03-21T18:49:58.797Z,1.93
2023-03-21T18:52:02.697Z,0.70
2023-03-21T18:54:30.174Z,0.80
2023-03-21T18:57:32.148Z,0.73
2023-03-21T18:59:44.603Z,0.60
2023-03-21T19:02:14.417Z,1.57
2023-03-21T19:04:41.506Z,0.83
2023-03-21T19:07:08.695Z,1.53
2023-03-21T19:09:58.313Z,1.03
2023-03-21T19:12:24.275Z,3.10
2023-03-21T19:14:51.226Z,1.47
2023-03-21T19:20:05.980Z,2.53
2023-03-21T19:22:32.932Z,1.27
2023-03-21T19:24:59.813Z,0.80
2023-03-21T19:27:27.095Z,1.97
2023-03-21T19:30:10.693Z,1.60
2023-03-21T19:32:39.661Z,0.77
2023-03-21T19:35:07.465Z,1.17
2023-03-21T19:37:36.353Z,2.43
2023-03-21T19:40:05.509Z,1.03
2023-03-21T19:42:32.584Z,1.17
2023-03-21T19:44:59.601Z,1.20
2023-03-21T19:47:27.089Z,1.50
2023-03-21T19:50:40.840Z,1.23
2023-03-21T19:52:42.297Z,1.53
2023-03-21T19:55:10.825Z,1.57
2023-03-21T19:57:37.813Z,1.23
2023-03-21T20:00:05.383Z,1.27
2023-03-21T20:02:36.021Z,0.93
2023-03-21T20:05:03.969Z,1.23
2023-03-21T20:07:32.984Z,2.27
2023-03-21T20:10:00.768Z,2.00
2023-03-21T20:12:27.827Z,1.93
2023-03-21T20:15:07.200Z,2.77
2023-03-21T20:17:43.176Z,1.63
2023-03-21T20:20:13.788Z,1.67
2023-03-21T20:25:28.733Z,2.20
2023-03-21T20:28:12.759Z,2.87
2023-03-21T20:30:52.978Z,2.70
2023-03-21T20:33:20.263Z,3.10
2023-03-21T20:38:36.471Z,3.90
2023-03-21T20:41:06.189Z,3.03
2023-03-21T20:44:20.771Z,3.87
2023-03-21T20:46:20.853Z,4.50
2023-03-21T20:48:49.714Z,4.43
2023-03-21T20:52:27.492Z,3.50
2023-03-21T20:54:05.060Z,3.73
2023-03-21T20:56:32.597Z,3.90
2023-03-21T20:59:14.939Z,3.20
2023-03-21T21:01:45.378Z,5.07
2023-03-21T21:04:15.059Z,4.70
2023-03-21T21:06:42.181Z,3.60
2023-03-21T21:09:09.373Z,4.07
2023-03-21T21:14:23.873Z,5.83
2023-03-21T21:16:51.590Z,5.17
2023-03-21T21:19:21.712Z,3.20
2023-03-21T21:21:49.838Z,3.07
2023-03-21T21:24:16.825Z,4.87
2023-03-21T21:26:46.333Z,3.53
2023-03-21T21:29:17.406Z,2.93
2023-03-21T21:31:51.346Z,4.53
2023-03-21T21:34:19.915Z,5.10
2023-03-21T21:36:47.430Z,3.67
2023-03-21T21:39:17.215Z,5.07
2023-03-21T21:41:44.134Z,7.27
2023-03-21T21:44:11.378Z,6.23
2023-03-21T21:46:38.805Z,4.63
2023-03-21T21:49:05.802Z,3.60
2023-03-21T21:51:34.154Z,3.60
2023-03-21T21:54:03.941Z,5.70
2023-03-21T21:56:32.171Z,3.40
2023-03-21T21:59:03.308Z,3.03
2023-03-21T22:01:31.094Z,3.17
2023-03-21T22:04:06.068Z,7.07
2023-03-21T22:06:34.270Z,2.50
2023-03-21T22:09:02.316Z,8.00
2023-03-21T22:11:29.272Z,2.83
2023-03-21T22:13:56.421Z,3.83
2023-03-21T22:16:23.624Z,3.43
2023-03-21T22:18:50.763Z,3.97
2023-03-21T22:21:19.126Z,3.00
2023-03-21T22:23:46.033Z,2.93
2023-03-21T22:26:12.979Z,2.70
2023-03-21T22:28:42.176Z,2.80
2023-03-21T22:31:12.065Z,3.17
2023-03-21T22:33:39.061Z,2.90
2023-03-21T22:36:06.375Z,3.83
2023-03-21T22:38:34.669Z,1.80
2023-03-21T22:41:03.830Z,2.63
2023-03-21T22:43:34.170Z,2.47
2023-03-21T22:46:03.456Z,1.50
2023-03-21T22:48:31.122Z,1.50
2023-03-21T22:50:59.466Z,5.53
2023-03-21T22:53:26.815Z,1.93
2023-03-21T22:55:54.009Z,1.30
2023-03-21T22:58:21.446Z,2.50
2023-03-21T23:00:48.494Z,3.47
2023-03-21T23:03:16.983Z,1.70
2023-03-21T23:05:45.008Z,2.50
2023-03-21T23:08:13.365Z,2.00
2023-03-21T23:10:43.784Z,10.87
2023-03-21T23:13:10.922Z,9.47
2023-03-21T23:15:41.171Z,4.27
2023-03-21T23:18:08.409Z,3.93
2023-03-21T23:20:35.977Z,18.67
2023-03-21T23:23:03.052Z,2.13
2023-03-21T23:25:30.389Z,11.83
2023-03-21T23:27:57.362Z,10.57
2023-03-21T23:30:24.353Z,12.73
2023-03-21T23:32:51.367Z,4.90
2023-03-21T23:35:18.571Z,131.80
2023-03-21T23:37:52.387Z,7.43
2023-03-21T23:40:20.926Z,168.60
2023-03-21T23:42:47.950Z,16.13
2023-03-21T23:45:15.016Z,237.03
2023-03-21T23:47:41.999Z,114.13
2023-03-21T23:50:10.067Z,26.47
2023-03-21T23:52:37.680Z,20.80
2023-03-21T23:55:09.049Z,8.73
2023-03-21T23:57:37.089Z,8.27
